Time;durP1;ratioP1;P1;durP2;ratioP2;P2;SDS_P1;SDS_P2;PMS_P1;PMS_P2;Temp;Humidity;BMP_temperature;BMP_pressure;BME280_temperature;BME280_humidity;BME280_pressure;Samples;Min_cycle;Max_cycle;Signal;HPM_P1;HPM_P2
2022/12/24 00:01:25;;;;;;;8.57;1.77;;;12.60;99.90;;;;;;4993068;28;20018;-84
2022/12/24 00:03:51;;;;;;;6.35;1.30;;;12.50;99.90;;;;;;4987818;28;20112;-84
2022/12/24 00:06:21;;;;;;;10.00;1.83;;;12.60;99.90;;;;;;4951420;28;20176;-84
2022/12/24 00:08:47;;;;;;;11.18;1.73;;;12.50;99.90;;;;;;4992861;28;20021;-84
2022/12/24 00:11:13;;;;;;;8.80;1.58;;;12.50;99.90;;;;;;4969435;28;20022;-84
2022/12/24 00:13:39;;;;;;;10.60;1.30;;;12.50;99.90;;;;;;5000450;28;21575;-85
2022/12/24 00:16:05;;;;;;;5.97;1.30;;;12.50;99.90;;;;;;5002259;28;20553;-84
2022/12/24 00:18:31;;;;;;;9.23;1.65;;;12.50;99.90;;;;;;4976689;28;20809;-86
2022/12/24 00:20:57;;;;;;;8.07;1.92;;;12.50;99.90;;;;;;4978051;28;20160;-85
2022/12/24 00:23:24;;;;;;;10.43;1.87;;;12.40;99.90;;;;;;4994218;28;20033;-84
2022/12/24 00:25:49;;;;;;;6.30;1.30;;;12.50;99.90;;;;;;4997659;28;20346;-85
2022/12/24 00:28:16;;;;;;;7.10;1.48;;;12.40;99.90;;;;;;4980434;28;20030;-86
2022/12/24 00:30:42;;;;;;;9.43;1.50;;;12.50;99.90;;;;;;4970824;28;20061;-85
2022/12/24 00:33:08;;;;;;;9.50;1.55;;;12.50;99.90;;;;;;4982803;28;20164;-86
2022/12/24 00:35:34;;;;;;;10.50;2.20;;;12.50;99.90;;;;;;4957837;28;20045;-84
2022/12/24 00:38:02;;;;;;;9.82;1.75;;;12.50;99.90;;;;;;4995463;28;20037;-84
2022/12/24 00:40:29;;;;;;;8.85;1.88;;;12.50;99.90;;;;;;4991002;28;20120;-85
2022/12/24 00:42:55;;;;;;;7.22;1.60;;;12.50;99.90;;;;;;4991508;28;20021;-84
2022/12/24 00:45:21;;;;;;;10.18;1.40;;;12.60;99.90;;;;;;4970244;28;20445;-84
2022/12/24 00:47:47;;;;;;;7.40;1.70;;;12.50;99.90;;;;;;4981556;28;21037;-84
2022/12/24 00:50:13;;;;;;;6.78;1.63;;;12.50;99.90;;;;;;4955115;28;20039;-85
2022/12/24 00:52:39;;;;;;;12.10;1.92;;;12.50;99.90;;;;;;4983724;28;20021;-84
2022/12/24 00:55:05;;;;;;;7.03;1.60;;;12.60;99.90;;;;;;4995460;28;20504;-85
2022/12/24 00:57:31;;;;;;;9.10;1.60;;;12.60;99.90;;;;;;4989142;28;20041;-84
2022/12/24 00:59:57;;;;;;;10.50;1.50;;;12.60;99.90;;;;;;4972926;28;20445;-85
2022/12/24 01:02:23;;;;;;;8.90;1.60;;;12.70;99.90;;;;;;4977260;28;20063;-84
2022/12/24 01:07:33;;;;;;;8.27;1.80;;;12.70;99.90;;;;;;4968447;28;20038;-85
2022/12/24 01:09:58;;;;;;;10.23;1.87;;;12.70;99.90;;;;;;4997385;28;20037;-84
2022/12/24 01:12:24;;;;;;;9.25;1.65;;;12.70;99.90;;;;;;4992754;28;20029;-84
2022/12/24 01:14:50;;;;;;;9.48;1.40;;;12.80;99.90;;;;;;4995632;28;20037;-84
2022/12/24 01:17:16;;;;;;;9.57;1.87;;;12.80;99.90;;;;;;4977765;28;20055;-85
2022/12/24 01:19:42;;;;;;;9.70;1.83;;;12.80;99.90;;;;;;4980653;28;20088;-85
2022/12/24 01:22:08;;;;;;;5.87;1.40;;;12.80;99.90;;;;;;4944146;28;20239;-84
2022/12/24 01:24:34;;;;;;;8.82;1.88;;;12.80;99.90;;;;;;4989299;28;20032;-85
2022/12/24 01:26:59;;;;;;;10.38;2.00;;;12.80;99.90;;;;;;4978357;28;20025;-85
2022/12/24 01:29:25;;;;;;;11.48;1.83;;;12.90;99.90;;;;;;4980076;28;20014;-84
2022/12/24 01:31:51;;;;;;;10.83;1.50;;;12.90;99.90;;;;;;4966042;28;20069;-85
2022/12/24 01:34:17;;;;;;;9.80;1.73;;;12.90;99.90;;;;;;5007325;28;20437;-85
2022/12/24 01:36:43;;;;;;;7.30;1.40;;;12.80;99.90;;;;;;4987037;28;20651;-85
2022/12/24 01:39:08;;;;;;;6.22;1.42;;;12.90;99.90;;;;;;4987130;28;20688;-86
2022/12/24 01:44:27;;;;;;;6.40;1.30;;;12.80;99.90;;;;;;4991946;28;20021;-86
2022/12/24 01:47:04;;;;;;;6.93;1.58;;;12.80;99.90;;;;;;4966914;28;20030;-85
2022/12/24 01:49:30;;;;;;;6.57;1.50;;;12.70;99.90;;;;;;4974905;28;20050;-84
2022/12/24 01:52:03;;;;;;;7.60;1.50;;;12.70;99.90;;;;;;4950656;28;20517;-86
2022/12/24 01:54:35;;;;;;;3.97;1.15;;;12.70;99.90;;;;;;4980412;28;20084;-85
2022/12/24 01:57:06;;;;;;;5.88;1.23;;;12.70;99.90;;;;;;4976845;28;20519;-84
2022/12/24 01:59:33;;;;;;;5.47;1.30;;;12.60;99.90;;;;;;4990147;28;20121;-84
2022/12/24 02:02:00;;;;;;;7.28;1.13;;;12.60;99.90;;;;;;4995543;28;20611;-84
2022/12/24 02:04:37;;;;;;;4.43;1.10;;;12.60;99.90;;;;;;4979099;28;20115;-84
2022/12/24 02:07:03;;;;;;;6.32;1.10;;;12.60;99.90;;;;;;4976217;28;20471;-84
2022/12/24 02:09:30;;;;;;;6.03;1.00;;;12.50;99.90;;;;;;4995379;28;20425;-85
2022/12/24 02:11:57;;;;;;;6.77;1.17;;;12.50;99.90;;;;;;4972749;28;20512;-85
2022/12/24 02:14:25;;;;;;;7.78;1.30;;;12.50;99.90;;;;;;4972027;28;20524;-86
2022/12/24 02:17:16;;;;;;;8.65;1.38;;;12.50;99.90;;;;;;4971543;28;20467;-86
2022/12/24 02:20:19;;;;;;;7.22;1.38;;;12.50;99.90;;;;;;4981325;28;20429;-86
2022/12/24 02:23:13;;;;;;;6.10;1.45;;;12.50;99.90;;;;;;4998767;28;20108;-87
2022/12/24 02:25:44;;;;;;;6.13;1.37;;;12.50;99.90;;;;;;4988988;28;20175;-85
2022/12/24 02:28:38;;;;;;;6.32;1.48;;;12.50;99.90;;;;;;4985784;28;20863;-85
2022/12/24 02:31:30;;;;;;;8.43;1.42;;;12.40;99.90;;;;;;4983772;28;20030;-86
2022/12/24 02:34:10;;;;;;;7.05;1.63;;;12.40;99.90;;;;;;4975876;28;20140;-86
2022/12/24 02:36:42;;;;;;;5.70;1.25;;;12.40;99.90;;;;;;4992505;28;20080;-86
2022/12/24 02:39:15;;;;;;;6.47;1.50;;;12.40;99.90;;;;;;4968491;28;20693;-86
2022/12/24 02:42:05;;;;;;;5.75;1.20;;;12.40;99.90;;;;;;4969336;28;20022;-85
2022/12/24 02:44:46;;;;;;;4.13;1.05;;;12.40;99.90;;;;;;4979100;28;20121;-85
2022/12/24 02:47:13;;;;;;;7.30;1.02;;;12.40;99.90;;;;;;4998853;28;20699;-85
2022/12/24 02:49:44;;;;;;;5.60;1.10;;;12.40;99.90;;;;;;4988146;28;20060;-85
2022/12/24 02:52:39;;;;;;;10.03;1.67;;;12.40;99.90;;;;;;4978035;28;20452;-85
2022/12/24 02:55:13;;;;;;;6.00;1.63;;;12.40;99.90;;;;;;4964823;28;20022;-86
2022/12/24 02:58:13;;;;;;;7.82;1.95;;;12.40;99.90;;;;;;4990345;28;20503;-85
2022/12/24 03:00:46;;;;;;;7.28;1.60;;;12.40;99.90;;;;;;4980550;28;20116;-86
2022/12/24 03:03:37;;;;;;;11.30;2.28;;;12.40;99.90;;;;;;4974991;28;20365;-86
2022/12/24 03:06:21;;;;;;;7.93;1.77;;;12.40;99.90;;;;;;4994875;28;20049;-86
2022/12/24 03:08:56;;;;;;;9.48;1.83;;;12.40;99.90;;;;;;5003390;28;20029;-86
2022/12/24 03:11:22;;;;;;;4.32;1.25;;;12.40;99.90;;;;;;4966105;28;20228;-87
2022/12/24 03:13:48;;;;;;;8.52;1.50;;;12.40;99.90;;;;;;4978853;28;20025;-86
2022/12/24 03:16:20;;;;;;;10.80;1.88;;;12.40;99.90;;;;;;5003228;28;20034;-86
2022/12/24 03:18:48;;;;;;;9.47;2.03;;;12.40;99.90;;;;;;4977918;28;20552;-86
2022/12/24 03:21:21;;;;;;;7.10;1.98;;;12.40;99.90;;;;;;4994781;28;20036;-85
2022/12/24 03:23:47;;;;;;;8.32;1.83;;;12.40;99.90;;;;;;5007755;28;20057;-86
2022/12/24 03:26:16;;;;;;;10.13;1.65;;;12.50;99.90;;;;;;4962738;28;20557;-85
2022/12/24 03:28:43;;;;;;;7.00;1.90;;;12.50;99.90;;;;;;4977402;28;20060;-85
2022/12/24 03:31:09;;;;;;;8.15;1.92;;;12.40;99.90;;;;;;4981127;28;20092;-85
2022/12/24 03:33:35;;;;;;;5.00;1.60;;;12.50;99.90;;;;;;4987584;28;20481;-85
2022/12/24 03:36:02;;;;;;;8.27;2.17;;;12.50;99.90;;;;;;4974267;28;20034;-86
2022/12/24 03:38:27;;;;;;;7.70;2.00;;;12.50;99.90;;;;;;4984113;28;20643;-86
2022/12/24 03:40:53;;;;;;;8.40;2.30;;;12.50;99.90;;;;;;4953600;28;20130;-86
2022/12/24 03:43:19;;;;;;;7.00;2.00;;;12.50;99.90;;;;;;4977644;28;20072;-86
2022/12/24 03:45:45;;;;;;;4.23;1.80;;;12.50;99.90;;;;;;5010729;28;20037;-84
2022/12/24 03:48:11;;;;;;;6.72;1.83;;;12.50;99.90;;;;;;4994239;28;20533;-85
2022/12/24 03:50:37;;;;;;;6.15;2.00;;;12.60;99.90;;;;;;4989493;28;20010;-85
2022/12/24 03:53:02;;;;;;;6.40;1.83;;;12.60;99.90;;;;;;4981778;28;20215;-86
2022/12/24 03:55:28;;;;;;;6.18;1.88;;;12.60;99.90;;;;;;4957002;28;20029;-86
2022/12/24 03:57:54;;;;;;;5.28;1.75;;;12.60;99.90;;;;;;4978834;28;20044;-87
2022/12/24 04:00:20;;;;;;;8.83;2.10;;;12.60;99.90;;;;;;4977405;28;20057;-86
2022/12/24 04:02:46;;;;;;;6.32;1.77;;;12.60;99.90;;;;;;5000218;28;20029;-87
2022/12/24 04:05:18;;;;;;;6.18;1.85;;;12.60;99.90;;;;;;4980252;28;20690;-86
2022/12/24 04:07:44;;;;;;;7.90;1.70;;;12.60;99.90;;;;;;4998303;28;20108;-86
2022/12/24 04:10:10;;;;;;;5.78;1.75;;;12.60;99.90;;;;;;4977932;28;20137;-85
2022/12/24 04:12:36;;;;;;;6.30;1.55;;;12.70;99.90;;;;;;4956672;28;20026;-87
2022/12/24 04:15:03;;;;;;;9.43;2.00;;;12.70;99.90;;;;;;4980781;28;20038;-85
2022/12/24 04:17:28;;;;;;;10.38;2.05;;;12.70;99.90;;;;;;4982063;28;20054;-85
2022/12/24 04:19:54;;;;;;;6.40;1.70;;;12.60;99.90;;;;;;4959312;28;20149;-85
2022/12/24 04:22:20;;;;;;;8.98;1.92;;;12.60;99.90;;;;;;4980013;28;20030;-85
2022/12/24 04:24:46;;;;;;;4.70;1.73;;;12.70;99.90;;;;;;4985671;28;20021;-85
2022/12/24 04:27:16;;;;;;;10.77;2.58;;;12.70;99.90;;;;;;4954930;28;20030;-86
2022/12/24 04:29:42;;;;;;;9.90;2.50;;;12.60;99.90;;;;;;4977745;28;20282;-86
2022/12/24 04:32:09;;;;;;;8.67;2.10;;;12.60;99.90;;;;;;4991198;28;20030;-85
2022/12/24 04:34:35;;;;;;;7.80;1.95;;;12.60;99.90;;;;;;4991980;28;20061;-84
2022/12/24 04:37:01;;;;;;;6.57;2.00;;;12.60;99.90;;;;;;5001261;28;20026;-86
2022/12/24 04:39:27;;;;;;;7.13;1.90;;;12.50;99.90;;;;;;4968536;28;20612;-85
2022/12/24 04:41:53;;;;;;;6.93;1.83;;;12.50;99.90;;;;;;4979131;28;20014;-84
2022/12/24 04:44:19;;;;;;;7.30;1.80;;;12.50;99.90;;;;;;4964609;28;20064;-85
2022/12/24 04:46:44;;;;;;;8.18;2.20;;;12.40;99.90;;;;;;4965852;28;20053;-85
2022/12/24 04:49:10;;;;;;;7.73;1.87;;;12.40;99.90;;;;;;4979225;28;20175;-85
2022/12/24 04:51:36;;;;;;;8.27;1.83;;;12.40;99.90;;;;;;4984424;28;20026;-85
2022/12/24 04:54:02;;;;;;;10.50;2.10;;;12.40;99.90;;;;;;4973047;28;20040;-85
2022/12/24 04:56:31;;;;;;;10.35;1.90;;;12.30;99.90;;;;;;4972211;28;20028;-86
2022/12/24 04:58:58;;;;;;;5.53;1.55;;;12.30;99.90;;;;;;4968052;28;20832;-85
2022/12/24 05:01:26;;;;;;;6.38;1.70;;;12.30;99.90;;;;;;4997135;28;20135;-85
2022/12/24 05:03:53;;;;;;;6.53;2.00;;;12.30;99.90;;;;;;4975085;28;20022;-85
2022/12/24 05:06:22;;;;;;;8.55;1.70;;;12.30;99.90;;;;;;4965615;28;20068;-86
2022/12/24 05:08:48;;;;;;;8.70;1.98;;;12.30;99.90;;;;;;4991906;28;20037;-85
2022/12/24 05:11:15;;;;;;;9.98;1.70;;;12.30;99.90;;;;;;4982806;28;20378;-85
2022/12/24 05:13:42;;;;;;;7.00;2.00;;;12.40;99.90;;;;;;5003391;28;20037;-86
2022/12/24 05:16:08;;;;;;;7.33;1.60;;;12.40;99.90;;;;;;4960889;28;20229;-85
2022/12/24 05:18:34;;;;;;;7.00;2.10;;;12.40;99.90;;;;;;4979578;28;20024;-85
2022/12/24 05:21:01;;;;;;;9.15;1.98;;;12.50;99.90;;;;;;4971127;28;20318;-88
2022/12/24 05:26:20;;;;;;;8.38;1.45;;;12.50;99.90;;;;;;4984337;28;20285;-85
2022/12/24 05:28:58;;;;;;;6.30;1.40;;;12.40;99.90;;;;;;4986834;28;20063;-85
2022/12/24 05:31:25;;;;;;;6.20;1.50;;;12.50;99.90;;;;;;4972299;28;20488;-86
2022/12/24 05:33:53;;;;;;;9.35;2.20;;;12.40;99.90;;;;;;4980544;28;20080;-85
2022/12/24 05:36:19;;;;;;;11.02;2.25;;;12.40;99.90;;;;;;5008295;28;20076;-85
2022/12/24 05:38:45;;;;;;;10.70;1.98;;;12.40;99.90;;;;;;4963716;28;20030;-86
2022/12/24 05:41:11;;;;;;;7.17;1.47;;;12.40;99.90;;;;;;4982658;28;20341;-84
2022/12/24 05:43:37;;;;;;;9.93;1.60;;;12.40;99.90;;;;;;4995871;28;20048;-84
2022/12/24 05:46:06;;;;;;;11.77;2.22;;;12.40;99.90;;;;;;4950690;28;20060;-86
2022/12/24 05:48:31;;;;;;;9.97;1.93;;;12.30;99.90;;;;;;4991173;28;20025;-85
2022/12/24 05:50:57;;;;;;;8.30;1.60;;;12.30;99.90;;;;;;4971706;28;20026;-84
2022/12/24 05:53:23;;;;;;;9.17;1.90;;;12.30;99.90;;;;;;4964906;28;20475;-85
2022/12/24 05:55:49;;;;;;;9.02;1.70;;;12.30;99.90;;;;;;4971645;28;20029;-86
2022/12/24 05:58:15;;;;;;;8.85;1.85;;;12.30;99.90;;;;;;4962777;28;20144;-85
2022/12/24 06:00:41;;;;;;;7.53;1.63;;;12.20;99.90;;;;;;4960926;28;20030;-85
2022/12/24 06:03:07;;;;;;;8.82;1.67;;;12.20;99.90;;;;;;4962498;28;20045;-86
2022/12/24 06:05:33;;;;;;;8.05;1.70;;;12.20;99.90;;;;;;4975533;28;20191;-85
2022/12/24 06:07:58;;;;;;;11.90;2.13;;;12.20;99.90;;;;;;4985637;28;20021;-85
2022/12/24 06:10:24;;;;;;;6.15;1.60;;;12.20;99.90;;;;;;4977247;28;20136;-85
2022/12/24 06:12:50;;;;;;;7.82;1.70;;;12.20;99.90;;;;;;4968996;28;20057;-85
2022/12/24 06:15:16;;;;;;;12.10;2.17;;;12.20;99.90;;;;;;4985208;28;20029;-84
2022/12/24 06:17:42;;;;;;;9.80;1.80;;;12.30;99.90;;;;;;4966392;28;20129;-85
2022/12/24 06:20:09;;;;;;;8.18;1.65;;;12.30;99.90;;;;;;4981344;28;20099;-86
2022/12/24 06:22:34;;;;;;;9.23;1.90;;;12.30;99.90;;;;;;4975401;28;20285;-85
2022/12/24 06:25:00;;;;;;;6.13;1.38;;;12.30;99.90;;;;;;4980891;28;20029;-85
2022/12/24 06:27:26;;;;;;;5.47;1.45;;;12.30;99.90;;;;;;4983906;28;20049;-86
2022/12/24 06:29:52;;;;;;;6.83;1.77;;;12.30;99.90;;;;;;4980257;28;20317;-85
2022/12/24 06:32:19;;;;;;;8.13;1.50;;;12.30;99.90;;;;;;4964107;28;20153;-84
2022/12/24 06:34:44;;;;;;;7.63;1.70;;;12.30;99.90;;;;;;4986675;28;20026;-84
2022/12/24 06:37:17;;;;;;;7.45;2.08;;;12.30;99.90;;;;;;5013282;28;20375;-85
2022/12/24 06:39:44;;;;;;;5.45;1.40;;;12.30;99.90;;;;;;4978668;28;20398;-84
2022/12/24 06:42:11;;;;;;;11.98;1.65;;;12.30;99.90;;;;;;4977990;28;20393;-84
2022/12/24 06:44:36;;;;;;;8.60;2.10;;;12.40;99.90;;;;;;4970495;28;20053;-85
2022/12/24 06:47:02;;;;;;;7.55;1.70;;;12.40;99.90;;;;;;4952099;28;20028;-85
2022/12/24 06:49:28;;;;;;;7.97;1.50;;;12.30;99.90;;;;;;4985232;28;20026;-85
2022/12/24 06:51:54;;;;;;;8.57;1.60;;;12.30;99.90;;;;;;5008118;28;20034;-84
2022/12/24 06:54:20;;;;;;;9.90;1.85;;;12.40;99.90;;;;;;4982914;28;20037;-85
2022/12/24 06:56:45;;;;;;;8.77;1.77;;;12.30;99.90;;;;;;4984847;28;20208;-85
2022/12/24 06:59:11;;;;;;;11.60;2.20;;;12.30;99.90;;;;;;4971282;28;20105;-85
2022/12/24 07:01:37;;;;;;;8.02;1.90;;;12.40;99.90;;;;;;4975915;28;20526;-85
2022/12/24 07:04:03;;;;;;;7.18;1.50;;;12.40;99.90;;;;;;4995430;28;20037;-85
2022/12/24 07:06:30;;;;;;;8.53;1.73;;;12.40;99.90;;;;;;4994768;28;20283;-85
2022/12/24 07:08:56;;;;;;;9.85;1.80;;;12.40;99.90;;;;;;4979760;28;20103;-85
2022/12/24 07:11:23;;;;;;;7.03;1.80;;;12.30;99.90;;;;;;4976422;28;20026;-85
2022/12/24 07:13:49;;;;;;;10.90;2.00;;;12.30;99.90;;;;;;4986513;28;20096;-85
2022/12/24 07:16:16;;;;;;;10.32;1.70;;;12.30;99.90;;;;;;4997100;28;20121;-84
2022/12/24 07:18:41;;;;;;;6.50;1.95;;;12.40;99.90;;;;;;4969290;28;20037;-85
2022/12/24 07:21:07;;;;;;;5.40;1.40;;;12.30;99.90;;;;;;4981377;28;20037;-84
2022/12/24 07:23:34;;;;;;;12.02;2.05;;;12.30;99.90;;;;;;4988384;28;20236;-84
2022/12/24 07:26:06;;;;;;;10.40;1.88;;;12.30;99.90;;;;;;4977358;28;20152;-86
2022/12/24 07:28:32;;;;;;;6.10;1.60;;;12.30;99.90;;;;;;4989274;28;20231;-84
2022/12/24 07:30:58;;;;;;;9.67;1.77;;;12.30;99.90;;;;;;4988123;28;20037;-84
2022/12/24 07:33:25;;;;;;;5.38;1.60;;;12.30;99.90;;;;;;4948541;28;20105;-84
2022/12/24 07:36:02;;;;;;;8.68;1.95;;;12.30;99.90;;;;;;5008980;28;20025;-85
2022/12/24 07:38:29;;;;;;;9.02;1.92;;;12.30;99.90;;;;;;5005365;28;20110;-84
2022/12/24 07:40:55;;;;;;;6.80;1.75;;;12.20;99.90;;;;;;4994107;28;20479;-85
2022/12/24 07:43:21;;;;;;;9.30;1.83;;;12.30;99.90;;;;;;4992903;28;20033;-85
2022/12/24 07:45:46;;;;;;;8.18;1.65;;;12.20;99.90;;;;;;4985876;28;20181;-84
2022/12/24 07:48:12;;;;;;;7.68;1.40;;;12.20;99.90;;;;;;4953793;28;20675;-84
2022/12/24 07:50:38;;;;;;;9.07;1.80;;;12.20;99.90;;;;;;4994534;28;20698;-85
2022/12/24 07:53:04;;;;;;;7.50;1.45;;;12.20;99.90;;;;;;4967367;28;20509;-83
2022/12/24 07:55:30;;;;;;;8.70;2.00;;;12.30;99.90;;;;;;5005120;28;20072;-84
2022/12/24 07:57:55;;;;;;;7.50;2.03;;;12.30;99.90;;;;;;4955324;28;20084;-85
2022/12/24 08:00:21;;;;;;;10.53;1.93;;;12.30;99.90;;;;;;4987336;28;20211;-85
2022/12/24 08:02:47;;;;;;;8.27;2.00;;;12.30;99.90;;;;;;4985289;28;20037;-85
2022/12/24 08:05:13;;;;;;;12.52;2.25;;;12.30;99.90;;;;;;4961756;28;20050;-87
2022/12/24 08:07:39;;;;;;;7.47;1.70;;;12.30;99.90;;;;;;4989309;28;20037;-85
2022/12/24 08:10:05;;;;;;;10.50;2.00;;;12.30;99.90;;;;;;4973795;28;20862;-85
2022/12/24 08:12:31;;;;;;;9.68;1.88;;;12.30;99.90;;;;;;4959108;28;20171;-84
2022/12/24 08:14:57;;;;;;;9.23;2.30;;;12.40;99.90;;;;;;5004365;28;20054;-84
2022/12/24 08:17:23;;;;;;;7.32;1.70;;;12.40;99.90;;;;;;4983334;28;20040;-84
2022/12/24 08:19:49;;;;;;;9.48;2.20;;;12.30;99.90;;;;;;4970659;28;20108;-85
2022/12/24 08:22:15;;;;;;;10.43;2.17;;;12.40;99.90;;;;;;4974624;28;20056;-84
2022/12/24 08:24:40;;;;;;;11.38;1.83;;;12.30;99.90;;;;;;4967829;28;20494;-85
2022/12/24 08:27:06;;;;;;;8.35;1.77;;;12.30;99.90;;;;;;4975268;28;20028;-84
2022/12/24 08:29:32;;;;;;;8.73;1.80;;;12.30;99.90;;;;;;4996909;28;20040;-84
2022/12/24 08:31:58;;;;;;;7.75;1.85;;;12.30;99.90;;;;;;4981903;28;20056;-84
2022/12/24 08:34:24;;;;;;;9.07;2.03;;;12.40;99.90;;;;;;4952592;28;20041;-84
2022/12/24 08:36:50;;;;;;;7.67;2.17;;;12.40;99.90;;;;;;4970671;28;20266;-84
2022/12/24 08:39:16;;;;;;;5.85;1.60;;;12.40;99.90;;;;;;4992542;28;20022;-84
2022/12/24 08:41:42;;;;;;;8.98;1.90;;;12.40;99.90;;;;;;4977056;28;20465;-84
2022/12/24 08:44:07;;;;;;;10.70;2.00;;;12.40;99.90;;;;;;4960781;28;20505;-84
2022/12/24 08:46:33;;;;;;;9.18;1.88;;;12.50;99.90;;;;;;5011411;28;20475;-86
2022/12/24 08:48:59;;;;;;;10.52;2.05;;;12.50;99.90;;;;;;4966615;28;20030;-85
2022/12/24 08:51:25;;;;;;;8.33;2.00;;;12.50;99.90;;;;;;4992786;28;20018;-84
2022/12/24 08:53:51;;;;;;;7.95;1.65;;;12.50;99.90;;;;;;5007028;28;20152;-84
2022/12/24 08:56:17;;;;;;;6.50;1.80;;;12.50;99.90;;;;;;4997283;28;20057;-86
2022/12/24 08:58:43;;;;;;;8.17;1.93;;;12.50;99.90;;;;;;4977433;28;20037;-84
2022/12/24 09:01:15;;;;;;;7.90;2.08;;;12.50;99.90;;;;;;4973827;28;20069;-84
2022/12/24 09:03:41;;;;;;;11.85;2.53;;;12.60;99.90;;;;;;4995573;28;20033;-84
2022/12/24 09:06:08;;;;;;;8.00;1.67;;;12.50;99.90;;;;;;4947035;28;20064;-84
2022/12/24 09:08:35;;;;;;;6.97;1.55;;;12.60;99.90;;;;;;4980980;28;20025;-85
2022/12/24 09:11:04;;;;;;;8.27;2.08;;;12.60;99.90;;;;;;4987013;28;20036;-85
2022/12/24 09:13:30;;;;;;;7.82;1.80;;;12.60;99.90;;;;;;4964047;28;20018;-85
2022/12/24 09:15:56;;;;;;;7.07;2.03;;;12.60;99.90;;;;;;4975941;28;20043;-84
2022/12/24 09:18:22;;;;;;;8.38;2.17;;;12.60;99.90;;;;;;4980889;28;20064;-85
2022/12/24 09:20:48;;;;;;;9.40;2.00;;;12.60;99.90;;;;;;4945788;28;20116;-85
2022/12/24 09:23:14;;;;;;;12.17;2.30;;;12.60;99.90;;;;;;4977722;28;20128;-83
2022/12/24 09:25:41;;;;;;;10.95;2.00;;;12.60;99.90;;;;;;4977385;28;20109;-85
2022/12/24 09:28:07;;;;;;;8.90;2.15;;;12.60;99.90;;;;;;4988060;28;20362;-84
2022/12/24 09:30:33;;;;;;;8.87;1.80;;;12.60;99.90;;;;;;4978103;28;20371;-84
2022/12/24 09:32:58;;;;;;;9.63;2.13;;;12.60;99.90;;;;;;4973033;28;20052;-85
2022/12/24 09:35:24;;;;;;;8.60;2.20;;;12.60;99.90;;;;;;4981271;28;20490;-85
2022/12/24 09:38:01;;;;;;;8.65;2.10;;;12.60;99.90;;;;;;4956886;28;20483;-84
2022/12/24 09:40:39;;;;;;;9.75;2.05;;;12.60;99.90;;;;;;4979732;28;20049;-85
2022/12/24 09:43:18;;;;;;;8.20;2.00;;;12.60;99.90;;;;;;4990181;28;20146;-87
2022/12/24 09:46:08;;;;;;;6.95;1.88;;;12.60;99.90;;;;;;4982971;28;20032;-87
2022/12/24 09:48:38;;;;;;;13.35;2.40;;;12.60;99.90;;;;;;4977187;28;20022;-87
2022/12/24 09:51:16;;;;;;;8.15;2.17;;;12.70;99.90;;;;;;4964412;28;20032;-86
2022/12/24 09:54:13;;;;;;;9.73;1.92;;;12.70;99.90;;;;;;4965354;28;20047;-87
2022/12/24 09:56:44;;;;;;;9.07;1.90;;;12.70;99.90;;;;;;4976252;28;20598;-86
2022/12/24 09:59:14;;;;;;;9.45;2.00;;;12.80;99.90;;;;;;4975213;28;20022;-87
2022/12/24 10:01:40;;;;;;;10.30;2.40;;;12.80;99.90;;;;;;4979672;28;20137;-82
2022/12/24 10:04:13;;;;;;;11.13;1.90;;;12.90;99.90;;;;;;4995197;28;20100;-87
2022/12/24 10:06:50;;;;;;;10.43;2.20;;;12.90;99.90;;;;;;5000252;28;20104;-87
2022/12/24 10:09:27;;;;;;;12.15;2.10;;;12.90;99.90;;;;;;4979115;28;20014;-84
2022/12/24 10:12:05;;;;;;;9.15;2.25;;;13.00;99.90;;;;;;4986737;28;20040;-86
2022/12/24 10:14:47;;;;;;;6.00;1.88;;;13.00;99.90;;;;;;5002768;28;20037;-85
2022/12/24 10:17:35;;;;;;;10.15;1.98;;;13.10;99.90;;;;;;4995397;28;20617;-84
2022/12/24 10:20:23;;;;;;;7.77;1.77;;;13.10;99.90;;;;;;5006702;28;20748;-85
2022/12/24 10:23:04;;;;;;;9.73;2.30;;;13.10;99.90;;;;;;4988955;28;21267;-85
2022/12/24 10:25:43;;;;;;;9.88;2.35;;;13.10;99.90;;;;;;4993697;28;20263;-85
2022/12/24 10:28:16;;;;;;;8.75;2.05;;;13.10;99.90;;;;;;4990206;28;20440;-85
2022/12/24 10:30:47;;;;;;;9.60;2.20;;;13.20;99.90;;;;;;4976980;28;20363;-85
2022/12/24 10:33:21;;;;;;;7.00;2.13;;;13.20;99.90;;;;;;4986030;28;20027;-85
2022/12/24 10:35:53;;;;;;;10.80;2.20;;;13.20;99.90;;;;;;4977213;28;20429;-85
2022/12/24 10:38:19;;;;;;;9.50;1.92;;;13.30;99.90;;;;;;4953223;28;20143;-85
2022/12/24 10:40:49;;;;;;;10.53;2.10;;;13.30;99.90;;;;;;4975661;28;20085;-85
2022/12/24 10:43:18;;;;;;;6.03;1.70;;;13.30;99.90;;;;;;5006547;28;20975;-85
2022/12/24 10:45:52;;;;;;;11.00;2.15;;;13.40;99.90;;;;;;4979520;28;20108;-85
2022/12/24 10:48:26;;;;;;;8.45;1.90;;;13.40;99.90;;;;;;5000107;28;20581;-85
2022/12/24 10:50:56;;;;;;;10.68;2.00;;;13.40;99.90;;;;;;4980164;28;20491;-85
2022/12/24 10:53:41;;;;;;;7.20;1.92;;;13.40;99.90;;;;;;4999857;28;20025;-85
2022/12/24 10:56:11;;;;;;;8.83;2.00;;;13.40;99.90;;;;;;4955999;28;20117;-86
2022/12/24 10:58:45;;;;;;;11.43;2.25;;;13.40;99.90;;;;;;5004802;28;20057;-85
2022/12/24 11:01:12;;;;;;;8.73;2.05;;;13.40;99.90;;;;;;5000151;28;20370;-85
2022/12/24 11:03:38;;;;;;;8.23;1.92;;;13.40;99.90;;;;;;4971549;28;20475;-86
2022/12/24 11:06:20;;;;;;;7.68;1.90;;;13.40;99.90;;;;;;4994196;28;20346;-85
2022/12/24 11:08:46;;;;;;;9.80;1.80;;;13.50;99.90;;;;;;4982094;28;20105;-85
2022/12/24 11:11:16;;;;;;;10.18;1.70;;;13.50;99.90;;;;;;5004954;28;20494;-85
2022/12/24 11:13:52;;;;;;;7.18;1.85;;;13.50;99.90;;;;;;4987608;28;20591;-86
2022/12/24 11:16:25;;;;;;;6.95;1.92;;;13.50;99.90;;;;;;4995864;28;23609;-85
2022/12/24 11:18:54;;;;;;;9.55;1.90;;;13.50;99.90;;;;;;4970142;28;20021;-86
2022/12/24 11:21:36;;;;;;;9.73;1.93;;;13.60;99.90;;;;;;5003905;28;20037;-86
2022/12/24 11:24:23;;;;;;;7.43;1.70;;;13.60;99.90;;;;;;4978426;28;20051;-84
2022/12/24 11:26:48;;;;;;;7.07;1.85;;;13.60;99.90;;;;;;4971167;28;20484;-84
2022/12/24 11:29:25;;;;;;;8.33;2.00;;;13.60;99.90;;;;;;4976861;28;20491;-85
2022/12/24 11:31:51;;;;;;;8.23;1.70;;;13.60;99.90;;;;;;4969881;28;20727;-85
2022/12/24 11:34:33;;;;;;;11.13;1.90;;;13.60;99.90;;;;;;4985658;28;20026;-84
2022/12/24 11:37:08;;;;;;;8.07;1.60;;;13.60;99.90;;;;;;4962278;28;20290;-84
2022/12/24 11:39:40;;;;;;;7.10;1.70;;;13.60;99.90;;;;;;4982180;28;20568;-84
2022/12/24 11:42:06;;;;;;;8.05;1.80;;;13.60;99.90;;;;;;4972370;28;20030;-84
2022/12/24 11:44:32;;;;;;;7.23;1.73;;;13.60;99.90;;;;;;4994259;28;20030;-84
2022/12/24 11:46:58;;;;;;;11.18;2.20;;;13.60;99.90;;;;;;4960455;28;20021;-85
2022/12/24 11:49:30;;;;;;;9.32;2.10;;;13.60;99.90;;;;;;4990919;28;20491;-85
2022/12/24 11:52:08;;;;;;;11.07;1.83;;;13.60;99.90;;;;;;5000151;28;20713;-84
2022/12/24 11:54:57;;;;;;;6.67;1.60;;;13.60;99.90;;;;;;4973626;28;20037;-84
2022/12/24 11:57:27;;;;;;;7.65;1.73;;;13.60;99.90;;;;;;4953008;28;20660;-84
2022/12/24 11:59:53;;;;;;;12.57;2.15;;;13.60;99.90;;;;;;4977443;28;20045;-84
2022/12/24 12:02:21;;;;;;;10.30;2.40;;;13.60;99.90;;;;;;5005974;28;20145;-85
2022/12/24 12:04:56;;;;;;;9.27;2.20;;;13.70;99.90;;;;;;4965998;28;20493;-83
2022/12/24 12:07:29;;;;;;;7.85;2.22;;;13.70;99.90;;;;;;4990358;28;20488;-84
2022/12/24 12:10:17;;;;;;;9.65;2.20;;;13.70;99.90;;;;;;4955965;28;20049;-83
2022/12/24 12:12:52;;;;;;;11.07;2.03;;;13.80;99.90;;;;;;4995327;28;20037;-84
2022/12/24 12:15:34;;;;;;;8.70;1.93;;;13.90;99.90;;;;;;4980772;28;20025;-84
2022/12/24 12:18:08;;;;;;;9.52;2.53;;;13.90;99.90;;;;;;4989366;28;20309;-83
2022/12/24 12:20:40;;;;;;;9.20;2.38;;;14.00;99.90;;;;;;4978031;28;20999;-84
2022/12/24 12:23:27;;;;;;;13.02;2.40;;;14.00;99.90;;;;;;4972625;28;20030;-84
2022/12/24 12:25:58;;;;;;;10.85;2.17;;;14.10;99.90;;;;;;4982457;28;20680;-83
2022/12/24 12:28:46;;;;;;;9.57;2.80;;;14.10;99.90;;;;;;5005878;28;20022;-84
2022/12/24 12:31:47;;;;;;;6.55;2.05;;;14.10;99.90;;;;;;4969010;28;20025;-84
2022/12/24 12:34:20;;;;;;;8.93;2.20;;;14.20;99.90;;;;;;4985211;28;20216;-84
2022/12/24 12:37:36;;;;;;;9.52;2.00;;;14.20;99.90;;;;;;4987822;28;20084;-86
2022/12/24 12:40:03;;;;;;;8.95;2.10;;;14.20;99.90;;;;;;4979339;28;21472;-84
2022/12/24 12:42:33;;;;;;;8.67;2.13;;;14.20;99.90;;;;;;4985590;28;20454;-84
2022/12/24 12:45:17;;;;;;;8.45;2.10;;;14.20;99.90;;;;;;4959687;28;21794;-84
2022/12/24 12:48:00;;;;;;;9.73;2.40;;;14.30;99.90;;;;;;5006500;28;20040;-84
2022/12/24 12:50:48;;;;;;;7.85;2.13;;;14.30;99.90;;;;;;4985174;28;20025;-84
2022/12/24 12:53:23;;;;;;;7.60;2.15;;;14.30;99.90;;;;;;4972847;28;20125;-84
2022/12/24 12:56:07;;;;;;;10.70;2.33;;;14.30;99.90;;;;;;4973262;28;20037;-86
2022/12/24 12:58:59;;;;;;;11.60;2.33;;;14.30;99.90;;;;;;4991556;28;20041;-85
2022/12/24 13:01:25;;;;;;;10.40;2.30;;;14.30;99.90;;;;;;4982252;28;20040;-85
2022/12/24 13:04:21;;;;;;;8.23;2.10;;;14.30;99.90;;;;;;4996680;28;20699;-85
2022/12/24 13:07:04;;;;;;;8.75;2.50;;;14.30;99.90;;;;;;4979254;28;20041;-85
2022/12/24 13:10:18;;;;;;;9.35;2.20;;;14.30;99.90;;;;;;4986226;28;20113;-86